createdAt,value
2023-05-04T00:02:03.762Z,9.40
2023-05-04T00:04:30.433Z,9.07
2023-05-04T00:06:57.095Z,8.25
2023-05-04T00:09:23.735Z,8.10
2023-05-04T00:11:50.363Z,10.63
2023-05-04T00:14:17.096Z,10.95
2023-05-04T00:16:44.331Z,9.63
2023-05-04T00:19:11.206Z,10.20
2023-05-04T00:21:38.008Z,9.80
2023-05-04T00:24:05.053Z,9.32
2023-05-04T00:26:31.675Z,10.00
2023-05-04T00:28:58.366Z,9.20
2023-05-04T00:31:25.035Z,10.30
2023-05-04T00:33:51.720Z,9.27
2023-05-04T00:36:18.895Z,8.73
2023-05-04T00:38:54.762Z,8.35
2023-05-04T00:41:22.297Z,11.30
2023-05-04T00:43:49.204Z,10.23
2023-05-04T00:46:16.045Z,11.70
2023-05-04T00:48:45.923Z,10.63
2023-05-04T00:51:14.775Z,10.50
2023-05-04T00:53:41.736Z,9.32
2023-05-04T00:56:09.049Z,9.77
2023-05-04T00:58:35.941Z,8.70
2023-05-04T01:01:04.071Z,11.18
2023-05-04T01:03:31.911Z,9.68
2023-05-04T01:06:16.295Z,11.25
2023-05-04T01:08:50.781Z,9.07
2023-05-04T01:11:32.214Z,8.05
2023-05-04T01:14:01.895Z,9.40
2023-05-04T01:16:29.643Z,10.57
2023-05-04T01:18:56.378Z,11.93
2023-05-04T01:21:23.087Z,9.38
2023-05-04T01:23:50.678Z,11.52
2023-05-04T01:26:25.354Z,10.45
2023-05-04T01:29:22.187Z,11.52
2023-05-04T01:31:50.932Z,11.00
2023-05-04T01:34:18.846Z,12.75
2023-05-04T01:36:46.267Z,12.57
2023-05-04T01:39:12.942Z,12.48
2023-05-04T01:41:39.625Z,9.88
2023-05-04T01:44:06.304Z,11.55
2023-05-04T01:46:33.072Z,11.45
2023-05-04T01:48:59.867Z,12.95
2023-05-04T01:51:26.736Z,16.27
2023-05-04T01:53:53.337Z,9.70
2023-05-04T01:56:20.504Z,13.60
2023-05-04T01:58:47.229Z,11.18
2023-05-04T02:01:13.972Z,11.32
2023-05-04T02:03:41.093Z,11.32
2023-05-04T02:06:09.702Z,9.73
2023-05-04T02:08:36.369Z,11.73
2023-05-04T02:11:03.070Z,13.27
2023-05-04T02:13:29.738Z,13.38
2023-05-04T02:15:56.414Z,10.82
2023-05-04T02:18:23.089Z,12.48
2023-05-04T02:20:49.888Z,10.88
2023-05-04T02:23:16.654Z,13.98
2023-05-04T02:25:43.363Z,12.68
2023-05-04T02:28:10.126Z,11.35
2023-05-04T02:30:37.368Z,10.68
2023-05-04T02:33:04.590Z,11.10
2023-05-04T02:35:31.429Z,11.27
2023-05-04T02:37:58.120Z,15.68
2023-05-04T02:40:25.014Z,13.43
2023-05-04T02:42:51.943Z,13.85
2023-05-04T02:45:18.726Z,10.40
2023-05-04T02:47:45.525Z,17.25
2023-05-04T02:50:12.203Z,12.90
2023-05-04T02:52:39.079Z,15.15
2023-05-04T02:55:06.751Z,13.98
2023-05-04T02:57:33.765Z,12.52
2023-05-04T03:00:00.485Z,13.20
2023-05-04T03:02:27.267Z,12.38
2023-05-04T03:04:54.026Z,11.68
2023-05-04T03:07:20.822Z,12.98
2023-05-04T03:09:48.036Z,14.18
2023-05-04T03:12:14.855Z,15.75
2023-05-04T03:14:42.460Z,14.93
2023-05-04T03:17:09.101Z,17.02
2023-05-04T03:19:36.685Z,13.38
2023-05-04T03:22:04.176Z,15.05
2023-05-04T03:24:30.991Z,16.67
2023-05-04T03:26:57.802Z,14.32
2023-05-04T03:29:24.887Z,14.30
2023-05-04T03:31:52.359Z,16.88
2023-05-04T03:34:21.719Z,14.60
2023-05-04T03:36:53.175Z,16.15
2023-05-04T03:39:19.803Z,13.63
2023-05-04T03:41:46.635Z,17.27
2023-05-04T03:44:13.444Z,13.93
2023-05-04T03:46:40.289Z,12.65
2023-05-04T03:49:07.047Z,13.52
2023-05-04T03:51:33.704Z,15.32
2023-05-04T03:54:01.482Z,15.30
2023-05-04T03:56:28.340Z,18.15
2023-05-04T03:58:57.072Z,17.20
2023-05-04T04:01:27.603Z,20.42
2023-05-04T04:03:54.517Z,20.02
2023-05-04T04:06:22.549Z,18.58
2023-05-04T04:08:49.353Z,17.08
2023-05-04T04:11:16.056Z,16.83
2023-05-04T04:13:42.702Z,17.13
2023-05-04T04:16:09.401Z,15.63
2023-05-04T04:18:36.105Z,16.25
2023-05-04T04:21:03.513Z,19.77
2023-05-04T04:23:30.155Z,20.35
2023-05-04T04:25:56.816Z,19.27
2023-05-04T04:28:23.488Z,18.23
2023-05-04T04:30:50.117Z,18.83
2023-05-04T04:33:17.117Z,18.67
2023-05-04T04:35:43.966Z,18.65
2023-05-04T04:38:10.617Z,19.23
2023-05-04T04:40:37.261Z,27.60
2023-05-04T04:43:04.853Z,16.38
2023-05-04T04:45:33.185Z,20.83
2023-05-04T04:48:01.082Z,21.85
2023-05-04T04:50:29.188Z,23.25
2023-05-04T04:52:56.239Z,18.67
2023-05-04T04:55:25.848Z,19.42
2023-05-04T04:57:53.063Z,17.48
2023-05-04T05:00:19.990Z,20.30
2023-05-04T05:02:46.692Z,20.23
2023-05-04T05:05:13.578Z,18.83
2023-05-04T05:07:40.423Z,22.15
2023-05-04T05:10:08.619Z,19.20
2023-05-04T05:12:35.844Z,22.08
2023-05-04T05:15:04.497Z,20.35
2023-05-04T05:17:31.479Z,17.77
2023-05-04T05:19:58.196Z,18.50
2023-05-04T05:22:25.115Z,16.83
2023-05-04T05:24:51.888Z,17.67
2023-05-04T05:27:18.495Z,23.98
2023-05-04T05:29:45.690Z,19.08
2023-05-04T05:32:12.338Z,19.88
2023-05-04T05:34:39.127Z,21.23
2023-05-04T05:37:05.859Z,18.70
2023-05-04T05:39:32.467Z,21.73
2023-05-04T05:41:59.342Z,19.90
2023-05-04T05:44:26.169Z,20.85
2023-05-04T05:46:52.768Z,20.48
2023-05-04T05:49:19.469Z,23.15
2023-05-04T05:51:46.217Z,22.27
2023-05-04T05:54:12.946Z,20.70
2023-05-04T05:56:39.584Z,20.73
2023-05-04T05:59:06.509Z,17.67
2023-05-04T06:01:33.333Z,20.02
2023-05-04T06:04:00.334Z,18.33
2023-05-04T06:06:27.243Z,16.25
2023-05-04T06:08:53.849Z,20.25
2023-05-04T06:11:21.313Z,18.45
2023-05-04T06:13:47.952Z,20.33
2023-05-04T06:16:14.770Z,18.00
2023-05-04T06:18:41.516Z,18.33
2023-05-04T06:21:08.838Z,17.58
2023-05-04T06:23:35.507Z,21.23
2023-05-04T06:26:02.501Z,17.80
2023-05-04T06:28:29.103Z,19.67
2023-05-04T06:30:55.757Z,18.08
2023-05-04T06:33:22.410Z,22.40
2023-05-04T06:35:49.122Z,17.63
2023-05-04T06:38:15.815Z,16.00
2023-05-04T06:40:42.472Z,17.55
2023-05-04T06:43:09.131Z,16.30
2023-05-04T06:45:36.420Z,14.85
2023-05-04T06:48:04.300Z,18.20
2023-05-04T06:50:33.123Z,13.45
2023-05-04T06:53:04.499Z,16.98
2023-05-04T06:55:31.805Z,14.90
2023-05-04T06:57:58.558Z,13.70
2023-05-04T07:00:25.661Z,16.25
2023-05-04T07:02:53.695Z,14.90
2023-05-04T07:05:23.913Z,17.90
2023-05-04T07:07:51.382Z,17.92
2023-05-04T07:10:19.583Z,17.40
2023-05-04T07:12:46.990Z,15.20
2023-05-04T07:15:14.063Z,13.60
2023-05-04T07:17:41.086Z,18.60
2023-05-04T07:20:08.501Z,15.40
2023-05-04T07:22:35.418Z,13.60
2023-05-04T07:25:02.242Z,16.80
2023-05-04T07:27:29.013Z,13.88
2023-05-04T07:32:23.317Z,14.30
2023-05-04T07:34:50.180Z,13.20
2023-05-04T07:37:16.944Z,12.85
2023-05-04T07:39:43.705Z,12.52
2023-05-04T07:42:11.727Z,11.88
2023-05-04T07:44:38.449Z,12.30
2023-05-04T07:47:05.425Z,12.98
2023-05-04T07:49:32.085Z,12.15
2023-05-04T07:51:58.939Z,12.95
2023-05-04T07:54:25.808Z,12.93
2023-05-04T07:56:52.420Z,10.27
2023-05-04T07:59:19.130Z,14.70
2023-05-04T08:01:46.557Z,11.82
2023-05-04T08:04:13.452Z,10.60
2023-05-04T08:06:40.460Z,12.38
2023-05-04T08:09:07.106Z,11.50
2023-05-04T08:11:37.909Z,13.07
2023-05-04T08:14:05.272Z,12.63
2023-05-04T08:16:32.421Z,9.38
2023-05-04T08:19:00.069Z,10.63
2023-05-04T08:21:27.377Z,12.10
2023-05-04T08:23:54.450Z,9.60
2023-05-04T08:26:21.201Z,9.23
2023-05-04T08:28:48.461Z,12.15
2023-05-04T08:31:17.002Z,11.93
2023-05-04T08:33:43.753Z,17.95
2023-05-04T08:36:10.813Z,10.50
2023-05-04T08:38:37.494Z,13.10
2023-05-04T08:41:05.223Z,9.70
2023-05-04T08:43:35.835Z,11.00
2023-05-04T08:46:04.025Z,11.75
2023-05-04T08:48:34.887Z,13.60
2023-05-04T08:51:04.372Z,11.32
2023-05-04T08:53:32.785Z,11.10
2023-05-04T08:56:04.217Z,10.63
2023-05-04T08:58:32.985Z,10.02
2023-05-04T09:01:01.567Z,9.27
2023-05-04T09:03:30.339Z,13.93
2023-05-04T09:05:58.349Z,11.27
2023-05-04T09:08:25.101Z,11.27
2023-05-04T09:10:51.819Z,10.18
2023-05-04T09:13:18.651Z,11.07
2023-05-04T09:15:58.884Z,9.93
2023-05-04T09:18:43.991Z,10.25
2023-05-04T09:21:11.712Z,9.55
2023-05-04T09:23:49.263Z,11.55
2023-05-04T09:26:35.155Z,12.73
2023-05-04T09:29:15.400Z,11.13
2023-05-04T09:31:47.378Z,10.95
2023-05-04T09:36:43.936Z,11.48
2023-05-04T09:39:14.869Z,10.63
2023-05-04T09:41:42.702Z,14.05
2023-05-04T09:44:21.379Z,10.95
2023-05-04T09:47:00.489Z,10.10
2023-05-04T09:49:34.699Z,10.93
2023-05-04T09:52:02.973Z,10.48
2023-05-04T09:54:41.274Z,9.73
2023-05-04T09:57:15.562Z,10.23
2023-05-04T09:59:43.514Z,11.30
2023-05-04T10:02:22.150Z,10.43
2023-05-04T10:04:57.290Z,11.30
2023-05-04T10:07:24.925Z,11.63
2023-05-04T10:09:53.301Z,12.70
2023-05-04T10:12:20.007Z,10.00
2023-05-04T10:14:47.234Z,10.68
2023-05-04T10:18:07.440Z,13.00
2023-05-04T10:20:49.357Z,12.60
2023-05-04T10:23:58.193Z,10.90
2023-05-04T10:26:59.527Z,10.05
2023-05-04T10:29:33.316Z,8.18
2023-05-04T10:32:00.698Z,14.48
2023-05-04T10:34:30.111Z,12.40
2023-05-04T10:36:58.224Z,9.98
2023-05-04T10:39:27.976Z,10.23
2023-05-04T10:42:04.093Z,10.57
2023-05-04T10:44:32.869Z,10.30
2023-05-04T10:47:05.573Z,9.40
2023-05-04T10:49:33.980Z,9.85
2023-05-04T10:52:16.254Z,9.70
2023-05-04T10:54:43.681Z,10.10
2023-05-04T10:57:12.633Z,11.30
2023-05-04T10:59:41.321Z,10.95
2023-05-04T11:02:08.501Z,10.05
2023-05-04T11:04:35.820Z,8.43
2023-05-04T11:07:05.499Z,12.32
2023-05-04T11:09:42.627Z,9.55
2023-05-04T11:12:10.805Z,9.43
2023-05-04T11:14:43.270Z,11.35
2023-05-04T11:17:27.555Z,11.25
2023-05-04T11:19:55.246Z,10.82
2023-05-04T11:22:22.116Z,10.45
2023-05-04T11:24:49.114Z,9.48
2023-05-04T11:27:28.578Z,8.95
2023-05-04T11:30:03.571Z,10.90
2023-05-04T11:32:40.769Z,9.40
2023-05-04T11:35:09.599Z,9.18
2023-05-04T11:37:41.347Z,9.77
2023-05-04T11:42:36.363Z,9.18
2023-05-04T11:45:03.626Z,9.57
2023-05-04T11:47:30.605Z,8.05
2023-05-04T11:49:57.292Z,8.85
2023-05-04T11:52:25.798Z,8.65
2023-05-04T11:54:57.292Z,9.23
2023-05-04T11:57:24.009Z,10.80
2023-05-04T11:59:50.910Z,8.82
2023-05-04T12:02:18.202Z,10.20
2023-05-04T12:04:44.872Z,10.18
2023-05-04T12:07:12.691Z,7.38
2023-05-04T12:09:49.461Z,11.38
2023-05-04T12:12:21.328Z,7.60
2023-05-04T12:17:20.566Z,9.30
2023-05-04T12:19:55.370Z,9.48
2023-05-04T12:22:29.470Z,9.15
2023-05-04T12:24:58.749Z,9.25
2023-05-04T12:27:28.991Z,8.50
2023-05-04T12:29:55.830Z,8.95
2023-05-04T12:32:22.522Z,8.18
2023-05-04T12:34:49.388Z,8.02
2023-05-04T12:37:16.225Z,7.18
2023-05-04T12:39:43.052Z,7.90
2023-05-04T12:42:09.741Z,9.80
2023-05-04T12:44:36.447Z,6.82
2023-05-04T12:47:03.382Z,7.55
2023-05-04T12:49:29.990Z,7.53
2023-05-04T12:51:56.684Z,7.05
2023-05-04T12:54:23.402Z,6.32
2023-05-04T12:56:50.029Z,6.68
2023-05-04T12:59:16.718Z,5.82
2023-05-04T13:01:43.463Z,6.45
2023-05-04T13:04:10.283Z,6.25
2023-05-04T13:06:37.003Z,6.97
2023-05-04T13:09:06.000Z,6.78
2023-05-04T13:11:32.856Z,8.30
2023-05-04T13:13:59.765Z,6.32
2023-05-04T13:16:28.180Z,5.63
2023-05-04T13:18:55.596Z,6.65
2023-05-04T13:21:22.508Z,5.53
2023-05-04T13:23:49.451Z,5.80
2023-05-04T13:26:16.184Z,7.65
2023-05-04T13:28:43.178Z,5.72
2023-05-04T13:31:10.533Z,5.93
2023-05-04T13:33:40.276Z,8.20
2023-05-04T13:36:07.207Z,6.53
2023-05-04T13:38:33.858Z,6.53
2023-05-04T13:41:00.560Z,8.05
2023-05-04T13:43:27.983Z,7.93
2023-05-04T13:45:57.065Z,9.57
2023-05-04T13:48:25.757Z,6.35
2023-05-04T13:50:52.785Z,5.43
2023-05-04T13:53:19.449Z,6.22
2023-05-04T13:55:46.693Z,5.95
2023-05-04T13:58:13.357Z,7.07
2023-05-04T14:00:40.133Z,6.35
2023-05-04T14:03:06.937Z,6.32
2023-05-04T14:05:35.601Z,7.32
2023-05-04T14:08:02.927Z,7.38
2023-05-04T14:10:29.599Z,7.20
2023-05-04T14:12:56.410Z,7.00
2023-05-04T14:15:23.249Z,7.60
2023-05-04T14:17:50.442Z,7.30
2023-05-04T14:20:17.349Z,8.10
2023-05-04T14:22:44.392Z,7.68
2023-05-04T14:25:11.286Z,7.15
2023-05-04T14:27:37.974Z,7.90
2023-05-04T14:30:05.262Z,6.82
2023-05-04T14:32:32.008Z,6.75
2023-05-04T14:35:10.240Z,8.82
2023-05-04T14:37:39.607Z,5.72
2023-05-04T14:40:13.304Z,8.57
2023-05-04T14:42:39.934Z,8.30
2023-05-04T14:45:08.304Z,5.55
2023-05-04T14:47:35.471Z,7.88
2023-05-04T14:50:02.364Z,6.82
2023-05-04T14:52:29.159Z,6.35
2023-05-04T14:54:56.204Z,6.55
2023-05-04T14:57:22.966Z,7.43
2023-05-04T14:59:49.590Z,6.95
2023-05-04T15:02:17.685Z,7.70
2023-05-04T15:04:45.295Z,5.60
2023-05-04T15:07:14.375Z,7.40
2023-05-04T15:09:41.041Z,8.35
2023-05-04T15:12:08.722Z,5.38
2023-05-04T15:14:38.712Z,6.07
2023-05-04T15:17:05.461Z,8.00
2023-05-04T15:19:32.125Z,6.72
2023-05-04T15:21:58.751Z,5.85
2023-05-04T15:24:25.492Z,8.00
2023-05-04T15:26:52.182Z,8.32
2023-05-04T15:29:18.873Z,8.48
2023-05-04T15:31:45.683Z,8.95
2023-05-04T15:34:12.409Z,6.10
2023-05-04T15:36:39.059Z,6.20
2023-05-04T15:39:08.189Z,6.50
2023-05-04T15:41:35.620Z,8.45
2023-05-04T15:44:03.078Z,5.70
2023-05-04T15:46:29.785Z,6.90
2023-05-04T15:48:56.536Z,8.23
2023-05-04T15:51:23.218Z,6.20
2023-05-04T15:53:51.771Z,8.00
2023-05-04T15:56:18.488Z,5.68
2023-05-04T15:58:45.340Z,6.20
2023-05-04T16:01:14.582Z,6.50
2023-05-04T16:03:43.376Z,8.27
2023-05-04T16:06:10.139Z,6.07
2023-05-04T16:08:36.998Z,7.47
2023-05-04T16:11:04.480Z,7.68
2023-05-04T16:13:31.433Z,7.97
2023-05-04T16:15:58.169Z,11.02
2023-05-04T16:18:24.807Z,7.22
2023-05-04T16:20:51.676Z,8.55
2023-05-04T16:23:18.273Z,8.55
2023-05-04T16:25:44.960Z,6.90
2023-05-04T16:28:11.758Z,8.55
2023-05-04T16:30:38.507Z,7.97
2023-05-04T16:33:05.486Z,7.60
2023-05-04T16:35:32.288Z,7.18
2023-05-04T16:37:59.283Z,7.63
2023-05-04T16:40:26.696Z,6.55
2023-05-04T16:42:53.362Z,7.80
2023-05-04T16:45:20.597Z,8.60
2023-05-04T16:47:47.341Z,10.60
2023-05-04T16:50:14.474Z,7.88
2023-05-04T16:52:41.666Z,7.95
2023-05-04T16:55:11.796Z,8.13
2023-05-04T16:57:39.168Z,7.95
2023-05-04T17:00:07.090Z,8.20
2023-05-04T17:02:34.245Z,8.10
2023-05-04T17:05:01.185Z,8.43
2023-05-04T17:07:28.512Z,8.13
2023-05-04T17:09:55.190Z,8.50
2023-05-04T17:12:23.387Z,11.43
2023-05-04T17:14:50.204Z,14.32
2023-05-04T17:17:17.097Z,7.07
2023-05-04T17:19:43.727Z,8.57
2023-05-04T17:22:11.256Z,9.95
2023-05-04T17:24:38.056Z,8.63
2023-05-04T17:27:04.787Z,8.07
2023-05-04T17:29:31.568Z,9.15
2023-05-04T17:31:58.295Z,7.97
2023-05-04T17:34:25.107Z,8.48
2023-05-04T17:36:51.853Z,7.78
2023-05-04T17:39:18.819Z,6.28
2023-05-04T17:41:49.061Z,11.52
2023-05-04T17:44:16.454Z,8.07
2023-05-04T17:46:43.732Z,8.25
2023-05-04T17:49:10.686Z,8.43
2023-05-04T17:51:37.461Z,10.32
2023-05-04T17:54:04.107Z,8.40
2023-05-04T17:56:30.779Z,13.20
2023-05-04T17:58:57.469Z,8.77
2023-05-04T18:01:24.175Z,13.05
2023-05-04T18:03:50.989Z,11.07
2023-05-04T18:06:17.717Z,9.10
2023-05-04T18:08:44.508Z,9.35
2023-05-04T18:11:12.072Z,9.52
2023-05-04T18:13:38.712Z,7.35
2023-05-04T18:16:05.630Z,8.88
2023-05-04T18:18:32.290Z,7.93
2023-05-04T18:21:00.753Z,9.20
2023-05-04T18:23:27.489Z,14.98
2023-05-04T18:25:54.142Z,8.88
2023-05-04T18:28:20.774Z,7.78
2023-05-04T18:30:47.610Z,10.05
2023-05-04T18:33:14.258Z,10.07
2023-05-04T18:35:41.023Z,8.57
2023-05-04T18:38:07.691Z,9.25
2023-05-04T18:40:34.357Z,10.77
2023-05-04T18:43:00.958Z,10.63
2023-05-04T18:45:27.994Z,10.60
2023-05-04T18:47:54.764Z,9.93
2023-05-04T18:50:21.569Z,9.55
2023-05-04T18:52:48.188Z,9.73
2023-05-04T18:55:14.842Z,11.73
2023-05-04T18:57:41.568Z,8.27
2023-05-04T19:00:09.385Z,10.43
2023-05-04T19:02:36.793Z,9.77
2023-05-04T19:05:03.671Z,8.40
2023-05-04T19:07:30.348Z,9.95
2023-05-04T19:09:56.984Z,9.85
2023-05-04T19:12:23.996Z,10.07
2023-05-04T19:14:51.230Z,11.00
2023-05-04T19:17:18.615Z,8.82
2023-05-04T19:19:45.350Z,7.88
2023-05-04T19:22:13.388Z,9.35
2023-05-04T19:24:40.045Z,7.43
2023-05-04T19:27:07.410Z,7.20
2023-05-04T19:29:34.169Z,11.38
2023-05-04T19:32:05.676Z,10.00
2023-05-04T19:34:35.411Z,11.20
2023-05-04T19:37:02.192Z,9.10
2023-05-04T19:39:29.438Z,11.35
2023-05-04T19:41:56.104Z,7.90
2023-05-04T19:44:22.831Z,9.48
2023-05-04T19:46:51.625Z,9.02
2023-05-04T19:49:18.368Z,7.63
2023-05-04T19:51:44.971Z,9.82
2023-05-04T19:54:11.857Z,9.65
2023-05-04T19:56:38.511Z,8.20
2023-05-04T19:59:05.249Z,7.68
2023-05-04T20:01:31.867Z,8.95
2023-05-04T20:03:58.506Z,9.55
2023-05-04T20:06:25.127Z,8.40
2023-05-04T20:08:51.840Z,8.30
2023-05-04T20:11:18.587Z,9.18
2023-05-04T20:13:45.598Z,10.20
2023-05-04T20:16:13.144Z,8.38
2023-05-04T20:18:39.856Z,8.45
2023-05-04T20:21:06.640Z,9.57
2023-05-04T20:23:33.280Z,8.38
2023-05-04T20:25:59.969Z,7.47
2023-05-04T20:28:26.688Z,9.18
2023-05-04T20:30:53.334Z,8.25
2023-05-04T20:33:19.983Z,8.43
2023-05-04T20:35:46.618Z,12.40
2023-05-04T20:38:13.603Z,9.63
2023-05-04T20:40:40.230Z,10.45
2023-05-04T20:43:06.838Z,8.35
2023-05-04T20:45:34.304Z,9.63
2023-05-04T20:48:01.379Z,10.70
2023-05-04T20:50:28.020Z,8.65
2023-05-04T20:52:54.784Z,9.43
2023-05-04T20:55:21.537Z,9.32
2023-05-04T20:57:48.261Z,13.20
2023-05-04T21:00:15.355Z,15.88
2023-05-04T21:02:42.620Z,9.85
2023-05-04T21:05:09.506Z,9.20
2023-05-04T21:07:36.331Z,9.10
2023-05-04T21:10:03.666Z,12.35
2023-05-04T21:12:30.378Z,8.95
2023-05-04T21:14:57.097Z,10.85
2023-05-04T21:17:25.556Z,9.57
2023-05-04T21:19:52.264Z,8.82
2023-05-04T21:22:18.936Z,7.63
2023-05-04T21:24:46.692Z,8.70
2023-05-04T21:27:14.078Z,7.25
2023-05-04T21:29:40.760Z,9.07
2023-05-04T21:32:07.406Z,7.47
2023-05-04T21:34:34.102Z,8.95
2023-05-04T21:37:00.882Z,7.70
2023-05-04T21:39:27.506Z,10.88
2023-05-04T21:41:54.203Z,8.85
2023-05-04T21:44:20.813Z,10.88
2023-05-04T21:46:47.462Z,13.63
2023-05-04T21:49:14.218Z,9.18
2023-05-04T21:51:42.626Z,9.90
2023-05-04T21:54:09.239Z,7.20
2023-05-04T21:56:35.917Z,7.55
2023-05-04T21:59:03.118Z,7.80
2023-05-04T22:01:29.826Z,7.38
2023-05-04T22:03:56.834Z,9.43
2023-05-04T22:06:24.694Z,7.03
2023-05-04T22:08:51.717Z,8.13
2023-05-04T22:11:18.595Z,8.90
2023-05-04T22:13:45.292Z,9.38
2023-05-04T22:16:12.158Z,9.88
2023-05-04T22:18:38.817Z,9.73
2023-05-04T22:21:05.684Z,9.90
2023-05-04T22:23:32.697Z,7.78
2023-05-04T22:25:59.375Z,10.43
2023-05-04T22:28:26.420Z,10.13
2023-05-04T22:30:53.160Z,8.48
2023-05-04T22:33:20.017Z,11.15
2023-05-04T22:35:46.742Z,10.63
2023-05-04T22:38:14.649Z,9.73
2023-05-04T22:40:43.021Z,11.40
2023-05-04T22:43:11.788Z,10.93
2023-05-04T22:45:39.098Z,8.10
2023-05-04T22:48:05.854Z,10.20
2023-05-04T22:50:32.644Z,9.30
2023-05-04T22:52:59.346Z,8.70
2023-05-04T22:55:26.053Z,8.25
2023-05-04T22:57:52.785Z,11.32
2023-05-04T23:00:20.144Z,9.48
2023-05-04T23:02:47.235Z,9.60
2023-05-04T23:05:13.935Z,7.30
2023-05-04T23:07:40.883Z,7.82
2023-05-04T23:10:08.187Z,10.15
2023-05-04T23:12:35.054Z,9.00
2023-05-04T23:15:01.839Z,8.70
2023-05-04T23:17:28.530Z,9.48
2023-05-04T23:19:55.198Z,7.63
2023-05-04T23:22:21.845Z,8.13
2023-05-04T23:24:48.525Z,9.63
2023-05-04T23:27:15.240Z,7.22
2023-05-04T23:29:41.875Z,8.90
2023-05-04T23:32:08.647Z,8.50
2023-05-04T23:34:35.278Z,10.52
2023-05-04T23:37:01.977Z,8.73
2023-05-04T23:39:28.819Z,9.77
2023-05-04T23:41:55.581Z,9.60
2023-05-04T23:44:22.464Z,9.05
2023-05-04T23:46:49.220Z,8.32
2023-05-04T23:49:16.542Z,12.90
2023-05-04T23:51:43.678Z,9.52
2023-05-04T23:54:10.571Z,10.65
2023-05-04T23:56:37.203Z,11.02
2023-05-04T23:59:04.016Z,11.27
